Time;durP1;ratioP1;P1;durP2;ratioP2;P2;SDS_P1;SDS_P2;PMS_P1;PMS_P2;Temp;Humidity;BMP_temperature;BMP_pressure;BME280_temperature;BME280_humidity;BME280_pressure;Samples;Min_cycle;Max_cycle;Signal;HPM_P1;HPM_P2
2023/03/21 00:00:40;;;;;;;28.40;15.93;;;12.90;70.80;;;13.12;50.03;94803.97;5011226;28;20482;-55
2023/03/21 00:03:08;;;;;;;23.50;15.23;;;12.90;70.70;;;13.12;50.29;94803.97;5008093;28;20486;-56
2023/03/21 00:05:35;;;;;;;29.93;15.20;;;12.90;70.70;;;13.12;50.63;94805.75;5004248;28;20480;-55
2023/03/21 00:08:02;;;;;;;30.27;15.80;;;12.90;71.20;;;13.12;50.20;94803.13;5012776;28;20485;-55
2023/03/21 00:10:29;;;;;;;31.63;16.63;;;12.90;71.20;;;13.09;49.93;94799.81;5001545;28;20559;-55
2023/03/21 00:12:58;;;;;;;21.10;13.23;;;12.90;71.30;;;13.08;50.18;94800.78;4999980;28;20872;-59
2023/03/21 00:15:26;;;;;;;22.33;14.00;;;12.90;71.30;;;13.05;50.11;94795.81;5013240;28;20473;-56
2023/03/21 00:18:03;;;;;;;25.17;14.67;;;12.80;71.20;;;13.04;50.52;94795.97;5005780;28;20489;-57
2023/03/21 00:20:33;;;;;;;23.43;14.40;;;12.90;72.30;;;13.03;50.41;94795.16;4999391;28;20449;-56
2023/03/21 00:23:00;;;;;;;29.73;14.67;;;12.90;72.20;;;13.02;50.71;94793.50;5012873;28;20509;-57
2023/03/21 00:25:27;;;;;;;23.53;13.83;;;12.80;72.30;;;13.01;50.76;94793.66;5011066;28;20491;-55
2023/03/21 00:27:55;;;;;;;27.10;14.50;;;12.80;72.60;;;13.00;50.73;94794.66;5001553;28;20481;-56
2023/03/21 00:30:24;;;;;;;28.70;15.40;;;12.80;72.70;;;13.00;50.73;94792.84;5009205;28;20465;-54
2023/03/21 00:32:51;;;;;;;27.43;14.27;;;12.80;72.60;;;12.97;50.50;94794.97;5012931;28;20699;-54
2023/03/21 00:35:18;;;;;;;25.93;12.17;;;12.80;73.80;;;12.97;50.76;94795.78;5001817;28;20635;-57
2023/03/21 00:37:45;;;;;;;22.03;12.77;;;12.80;73.10;;;12.95;50.95;94786.34;5012016;28;20485;-54
2023/03/21 00:40:13;;;;;;;24.93;12.80;;;12.80;73.10;;;12.91;50.26;94791.94;5017330;28;20525;-53
2023/03/21 00:42:40;;;;;;;20.57;12.80;;;12.80;72.70;;;12.90;50.42;94784.19;5014832;28;20879;-53
2023/03/21 00:45:09;;;;;;;24.83;14.03;;;12.70;72.80;;;12.88;50.29;94788.81;4999364;28;20548;-56
2023/03/21 00:47:37;;;;;;;24.07;14.30;;;12.70;73.40;;;12.87;51.04;94785.34;5009101;28;20500;-54
2023/03/21 00:50:06;;;;;;;25.20;13.93;;;12.70;73.70;;;12.85;50.86;94782.00;5010759;28;20830;-56
2023/03/21 00:52:33;;;;;;;23.33;13.67;;;12.70;73.70;;;12.84;50.86;94787.44;5001525;28;20871;-60
2023/03/21 00:55:01;;;;;;;24.00;13.40;;;12.70;73.60;;;12.82;50.68;94787.59;5017414;28;20492;-54
2023/03/21 00:57:28;;;;;;;21.57;13.00;;;12.70;74.50;;;12.80;51.01;94786.94;5006047;28;20866;-56
2023/03/21 00:59:57;;;;;;;20.77;13.97;;;12.60;74.10;;;12.74;51.06;94783.09;5001679;28;20962;-55
2023/03/21 01:02:25;;;;;;;23.67;13.93;;;12.60;74.50;;;12.75;51.08;94781.31;5010410;28;22318;-55
2023/03/21 01:04:54;;;;;;;23.87;14.10;;;12.60;74.40;;;12.72;50.69;94778.97;5014485;28;20466;-54
2023/03/21 01:07:21;;;;;;;22.80;12.10;;;12.60;73.60;;;12.68;50.54;94775.00;4999657;28;20544;-56
2023/03/21 01:09:49;;;;;;;21.70;13.20;;;12.50;74.00;;;12.66;50.81;94774.31;5011200;28;20464;-56
2023/03/21 01:12:17;;;;;;;25.70;13.67;;;12.50;74.60;;;12.63;51.01;94777.28;5002286;28;20537;-56
2023/03/21 01:14:44;;;;;;;24.10;14.60;;;12.40;74.60;;;12.58;50.92;94771.59;5007633;28;20551;-54
2023/03/21 01:17:14;;;;;;;33.33;13.73;;;12.40;74.00;;;12.53;50.93;94765.00;5002530;28;20474;-55
2023/03/21 01:19:42;;;;;;;24.03;14.40;;;12.40;74.30;;;12.49;51.17;94761.00;5013005;28;21006;-54
2023/03/21 01:22:10;;;;;;;19.87;12.00;;;12.30;74.60;;;12.47;51.24;94770.91;5005676;28;20481;-55
2023/03/21 01:24:37;;;;;;;22.87;12.40;;;12.30;75.40;;;12.45;51.01;94769.38;5001280;28;20519;-56
2023/03/21 01:27:05;;;;;;;23.70;12.10;;;12.30;74.70;;;12.42;51.21;94775.78;5018177;28;20473;-56
2023/03/21 01:29:32;;;;;;;20.10;12.20;;;12.30;74.90;;;12.41;51.19;94779.44;5009349;28;20511;-55
2023/03/21 01:32:00;;;;;;;19.50;11.40;;;12.20;75.10;;;12.38;51.62;94777.91;4995933;28;21069;-54
2023/03/21 01:34:28;;;;;;;18.17;11.90;;;12.20;75.30;;;12.38;51.11;94777.09;5013854;28;20503;-55
2023/03/21 01:36:56;;;;;;;19.93;11.63;;;12.20;74.90;;;12.37;50.86;94780.69;5009588;28;20990;-56
2023/03/21 01:39:24;;;;;;;24.07;12.40;;;12.20;74.60;;;12.37;50.87;94773.59;4993718;28;20454;-55
2023/03/21 01:41:52;;;;;;;18.23;11.20;;;12.20;74.50;;;12.36;51.08;94771.97;5011134;28;20465;-55
2023/03/21 01:44:19;;;;;;;18.93;10.90;;;12.20;74.80;;;12.35;51.27;94770.31;5008097;28;20465;-55
2023/03/21 01:46:48;;;;;;;17.50;11.17;;;12.20;75.40;;;12.36;51.26;94771.13;5008856;28;20473;-55
2023/03/21 01:49:18;;;;;;;22.20;11.27;;;12.20;75.90;;;12.34;51.30;94765.19;5002675;28;20451;-56
2023/03/21 01:51:48;;;;;;;16.73;11.60;;;12.20;76.30;;;12.35;51.47;94766.84;5017835;28;20508;-57
2023/03/21 01:54:19;;;;;;;19.93;11.23;;;12.20;76.10;;;12.35;51.18;94769.50;5002699;28;20563;-56
2023/03/21 01:56:47;;;;;;;16.07;10.07;;;12.10;76.10;;;12.33;51.25;94761.72;4997931;28;20502;-55
2023/03/21 01:59:20;;;;;;;23.70;10.10;;;12.20;75.70;;;12.31;50.93;94760.22;5003237;28;20466;-55
2023/03/21 02:01:47;;;;;;;19.37;10.90;;;12.10;75.20;;;12.31;51.58;94765.50;5010461;28;20553;-55
2023/03/21 02:04:14;;;;;;;18.07;10.80;;;12.10;76.20;;;12.30;51.10;94766.47;5005927;28;20465;-55
2023/03/21 02:06:46;;;;;;;15.90;9.90;;;12.10;76.00;;;12.27;51.20;94756.22;5008213;28;20486;-55
2023/03/21 02:09:16;;;;;;;15.63;10.67;;;12.10;76.10;;;12.25;51.20;94756.38;5010368;28;20537;-56
2023/03/21 02:11:45;;;;;;;16.80;10.50;;;12.10;75.30;;;12.23;51.15;94762.78;5005560;28;20477;-54
2023/03/21 02:14:16;;;;;;;21.60;11.90;;;12.00;75.10;;;12.20;51.19;94763.91;5015693;28;21048;-53
2023/03/21 02:16:51;;;;;;;19.87;10.93;;;12.00;75.90;;;12.18;51.74;94756.16;5002108;28;20596;-54
2023/03/21 02:20:07;;;;;;;18.13;10.83;;;12.00;76.60;;;12.15;52.38;94753.00;5006334;28;20446;-54
2023/03/21 02:23:20;;;;;;;14.47;10.17;;;12.00;77.70;;;12.12;52.57;94743.59;5003405;28;20513;-54
2023/03/21 02:26:31;;;;;;;17.93;11.03;;;12.00;77.70;;;12.08;52.32;94750.13;4975081;28;20455;-54
2023/03/21 02:29:00;;;;;;;14.80;10.20;;;11.90;77.60;;;12.06;51.79;94756.56;4963290;28;20491;-56
2023/03/21 02:31:36;;;;;;;15.77;9.67;;;11.90;77.60;;;12.01;51.86;94762.28;5007804;28;20531;-54
2023/03/21 02:34:52;;;;;;;16.30;11.40;;;11.90;77.30;;;11.95;51.82;94753.16;5006110;28;20484;-58
2023/03/21 02:37:25;;;;;;;18.10;9.40;;;11.80;77.00;;;11.91;51.94;94753.59;4921504;29;20487;-56
2023/03/21 02:40:09;;;;;;;25.03;10.40;;;11.80;77.00;;;11.88;51.59;94751.25;4995169;28;20484;-55
2023/03/21 02:42:44;;;;;;;23.23;10.23;;;11.70;77.10;;;11.84;51.52;94758.63;5008561;28;20472;-53
2023/03/21 02:45:16;;;;;;;17.60;11.13;;;11.70;77.00;;;11.82;51.73;94748.25;5009510;28;20448;-56
2023/03/21 02:47:46;;;;;;;17.90;10.20;;;11.70;77.40;;;11.81;52.24;94745.75;5004573;28;20481;-56
2023/03/21 02:50:15;;;;;;;13.20;9.00;;;11.60;78.20;;;11.77;52.25;94745.25;5003715;28;20540;-55
2023/03/21 02:52:46;;;;;;;16.93;11.00;;;11.60;78.50;;;11.74;52.26;94750.81;4992493;28;21011;-54
2023/03/21 02:55:15;;;;;;;22.43;10.50;;;11.60;78.80;;;11.72;52.49;94752.75;5016702;28;21036;-58
2023/03/21 02:57:43;;;;;;;20.53;10.10;;;11.60;78.90;;;11.68;52.17;94746.16;5009546;28;20544;-54
2023/03/21 03:00:13;;;;;;;15.03;9.50;;;11.50;78.20;;;11.64;52.12;94745.59;4997592;28;20463;-55
2023/03/21 03:02:40;;;;;;;17.40;10.47;;;11.50;78.40;;;11.61;52.44;94750.34;5014075;28;20478;-53
2023/03/21 03:05:16;;;;;;;18.60;9.47;;;11.50;78.80;;;11.57;52.37;94747.19;5012540;28;21017;-56
2023/03/21 03:07:56;;;;;;;18.73;10.70;;;11.40;78.80;;;11.55;52.89;94754.38;5006225;28;20486;-53
2023/03/21 03:10:42;;;;;;;11.87;8.93;;;11.40;79.80;;;11.50;53.54;94742.66;5008902;28;20468;-55
2023/03/21 03:13:19;;;;;;;18.60;10.17;;;11.40;80.70;;;11.45;52.85;94751.81;5005071;28;21000;-54
2023/03/21 03:15:58;;;;;;;15.40;10.70;;;11.30;80.40;;;11.42;53.26;94753.94;4994692;28;20474;-57
2023/03/21 03:18:29;;;;;;;34.17;11.70;;;11.30;80.60;;;11.38;53.20;94755.19;5008997;28;21067;-55
2023/03/21 03:21:02;;;;;;;16.27;10.27;;;11.30;80.70;;;11.35;53.53;94756.31;5003967;28;21022;-54
2023/03/21 03:23:36;;;;;;;20.80;10.77;;;11.20;81.50;;;11.33;53.68;94762.72;5004831;28;20505;-54
2023/03/21 03:26:04;;;;;;;14.80;9.10;;;11.20;81.90;;;11.27;53.43;94762.31;5000785;28;20464;-53
2023/03/21 03:28:35;;;;;;;15.23;10.13;;;11.20;81.60;;;11.23;53.07;94762.75;5011372;28;20532;-54
2023/03/21 03:31:03;;;;;;;10.80;8.43;;;11.20;81.10;;;11.19;53.38;94761.41;5005184;28;20468;-54
2023/03/21 03:33:30;;;;;;;16.17;9.40;;;11.10;81.80;;;11.15;53.68;94760.84;4995918;28;20478;-54
2023/03/21 03:35:57;;;;;;;18.03;10.37;;;11.00;82.00;;;11.08;53.25;94763.25;5010822;28;20498;-57
2023/03/21 03:38:25;;;;;;;18.20;10.30;;;11.00;81.30;;;11.03;53.44;94759.38;4999896;28;20481;-54
2023/03/21 03:40:55;;;;;;;14.90;9.50;;;10.90;81.80;;;10.99;53.72;94761.47;5000604;28;20517;-55
2023/03/21 03:43:24;;;;;;;15.20;8.93;;;10.90;82.30;;;10.96;53.33;94756.50;5014107;28;20475;-54
2023/03/21 03:45:54;;;;;;;15.73;8.00;;;10.90;81.60;;;10.94;53.18;94753.19;5003684;28;20537;-55
2023/03/21 03:48:25;;;;;;;13.60;8.90;;;10.80;81.80;;;10.94;53.21;94755.84;4999291;28;20506;-56
2023/03/21 03:50:54;;;;;;;10.43;7.50;;;10.80;81.60;;;10.95;53.31;94752.22;5011003;28;20552;-55
2023/03/21 03:53:24;;;;;;;15.10;8.20;;;10.80;81.80;;;10.96;53.29;94745.97;4998147;28;20886;-55
2023/03/21 03:55:54;;;;;;;12.97;7.97;;;10.80;82.30;;;10.97;53.46;94750.28;4991088;28;21879;-55
2023/03/21 03:58:22;;;;;;;14.07;7.83;;;10.80;82.20;;;11.00;53.78;94754.41;5010205;28;20472;-56
2023/03/21 04:00:49;;;;;;;10.70;7.50;;;10.90;82.80;;;11.00;52.95;94751.78;5008297;28;20461;-53
2023/03/21 04:03:17;;;;;;;11.73;7.40;;;10.90;81.70;;;11.00;53.04;94749.13;5003953;28;20510;-55
2023/03/21 04:05:45;;;;;;;10.07;7.73;;;10.80;81.40;;;11.00;52.96;94755.25;5009190;28;20445;-54
2023/03/21 04:08:14;;;;;;;12.93;8.30;;;10.90;81.60;;;11.01;53.16;94749.00;5006609;28;21005;-56
2023/03/21 04:10:41;;;;;;;16.03;8.93;;;10.90;82.30;;;11.02;53.52;94742.78;4997596;28;20460;-55
2023/03/21 04:13:10;;;;;;;18.87;10.03;;;10.90;82.70;;;11.03;53.54;94752.34;5005819;28;21039;-55
2023/03/21 04:15:37;;;;;;;28.03;10.50;;;10.90;82.60;;;11.04;53.12;94756.59;5008415;28;20489;-56
2023/03/21 04:18:05;;;;;;;11.07;7.80;;;10.90;82.80;;;11.03;53.38;94754.13;5009925;28;20478;-54
2023/03/21 04:20:32;;;;;;;12.53;8.03;;;10.90;83.40;;;11.01;53.34;94748.19;4998457;28;20860;-57
2023/03/21 04:23:00;;;;;;;13.80;8.93;;;10.90;82.80;;;11.00;53.24;94742.09;5006307;28;20474;-54
2023/03/21 04:25:27;;;;;;;14.03;8.47;;;10.90;82.40;;;10.98;53.63;94737.94;5007408;28;20897;-56
2023/03/21 04:27:55;;;;;;;17.33;8.73;;;10.80;83.00;;;10.94;53.26;94742.69;5006800;28;21006;-56
2023/03/21 04:30:24;;;;;;;11.07;8.00;;;10.80;82.30;;;10.90;53.36;94741.28;5008028;28;20457;-54
2023/03/21 04:32:55;;;;;;;21.80;8.27;;;10.80;82.70;;;10.85;53.13;94733.84;5009477;28;20602;-54
2023/03/21 04:35:23;;;;;;;11.07;7.23;;;10.80;82.30;;;10.82;53.27;94746.47;5010119;28;20560;-54
2023/03/21 04:37:50;;;;;;;19.13;10.17;;;10.70;82.20;;;10.79;53.25;94746.75;5014080;28;20484;-54
2023/03/21 04:40:17;;;;;;;20.80;10.20;;;10.70;82.60;;;10.79;53.82;94747.56;5018045;28;21422;-54
2023/03/21 04:42:45;;;;;;;27.20;8.57;;;10.70;83.30;;;10.76;53.49;94750.50;5006074;28;20508;-57
2023/03/21 04:45:12;;;;;;;21.23;12.07;;;10.70;83.00;;;10.73;53.40;94745.50;5004325;28;20461;-56
2023/03/21 04:47:41;;;;;;;15.80;9.77;;;10.60;82.50;;;10.68;53.47;94745.94;5006640;28;20491;-57
2023/03/21 04:50:10;;;;;;;26.63;10.17;;;10.60;82.50;;;10.65;53.32;94748.84;5008650;28;20507;-53
2023/03/21 04:52:37;;;;;;;25.50;10.47;;;10.50;82.40;;;10.63;53.28;94752.59;5003161;28;20855;-55
2023/03/21 04:55:09;;;;;;;16.00;8.87;;;10.50;82.40;;;10.64;53.81;94746.38;5017377;28;20526;-56
2023/03/21 04:57:37;;;;;;;23.43;10.20;;;10.50;83.50;;;10.67;53.93;94752.16;5012388;28;20483;-57
2023/03/21 05:00:09;;;;;;;21.97;10.87;;;10.60;84.00;;;10.68;54.00;94753.84;4999287;28;20458;-55
2023/03/21 05:02:37;;;;;;;20.30;8.70;;;10.60;84.60;;;10.71;54.08;94753.56;5013195;28;20468;-54
2023/03/21 05:05:10;;;;;;;14.53;8.33;;;10.60;84.60;;;10.73;54.07;94756.84;5012401;28;20507;-55
2023/03/21 05:07:38;;;;;;;28.07;10.10;;;10.60;84.60;;;10.77;54.06;94760.88;5006463;28;20929;-55
2023/03/21 05:10:07;;;;;;;22.07;9.70;;;10.60;85.30;;;10.81;54.08;94757.94;5009685;28;20454;-55
2023/03/21 05:12:34;;;;;;;42.37;10.47;;;10.70;85.00;;;10.82;54.13;94755.19;5007981;28;20472;-54
2023/03/21 05:15:01;;;;;;;45.77;10.83;;;10.70;85.00;;;10.85;54.29;94756.69;5006867;28;21049;-55
2023/03/21 05:17:29;;;;;;;46.53;9.27;;;10.70;85.50;;;10.87;54.56;94763.47;5009439;28;20488;-56
2023/03/21 05:19:56;;;;;;;25.53;9.13;;;10.70;86.00;;;10.90;54.65;94757.91;5009363;28;20473;-55
2023/03/21 05:22:25;;;;;;;34.40;10.23;;;10.80;86.40;;;10.93;54.66;94762.06;4997692;28;20481;-56
2023/03/21 05:24:54;;;;;;;34.07;9.50;;;10.80;86.40;;;10.96;54.32;94758.31;4997076;28;21016;-55
2023/03/21 05:27:33;;;;;;;47.30;10.97;;;10.80;85.60;;;10.98;54.28;94759.81;5006468;28;20620;-55
2023/03/21 05:30:02;;;;;;;37.60;10.90;;;10.90;85.90;;;11.02;54.51;94761.19;5005964;28;20482;-55
2023/03/21 05:32:30;;;;;;;49.57;10.73;;;10.90;85.90;;;11.06;54.50;94765.19;4998063;28;20481;-55
2023/03/21 05:34:57;;;;;;;54.80;11.30;;;10.90;86.50;;;11.09;54.47;94762.28;5012722;28;20483;-56
2023/03/21 05:37:26;;;;;;;28.03;10.20;;;11.00;86.60;;;11.15;53.97;94773.19;5005193;28;20485;-56
2023/03/21 05:39:53;;;;;;;22.60;9.30;;;11.00;85.60;;;11.17;53.76;94768.59;5002132;28;21017;-55
2023/03/21 05:42:20;;;;;;;38.70;11.23;;;11.00;84.70;;;11.19;53.36;94766.66;5005942;28;21058;-56
2023/03/21 05:44:48;;;;;;;36.90;10.27;;;11.00;84.10;;;11.21;53.87;94765.53;5006027;28;21361;-54
2023/03/21 05:47:15;;;;;;;30.40;10.27;;;11.10;85.10;;;11.27;53.89;94759.69;5004609;28;20474;-54
2023/03/21 05:49:43;;;;;;;16.63;9.20;;;11.10;85.20;;;11.35;53.29;94758.94;5000177;28;20450;-54
2023/03/21 05:52:10;;;;;;;22.87;11.03;;;11.20;84.40;;;11.40;53.50;94759.34;5011276;28;20480;-58
2023/03/21 05:54:39;;;;;;;29.87;9.97;;;11.20;84.70;;;11.48;53.44;94753.34;4999602;28;20525;-55
2023/03/21 05:57:06;;;;;;;37.83;11.07;;;11.30;84.50;;;11.57;53.57;94749.81;5002583;28;20510;-55
2023/03/21 05:59:34;;;;;;;53.70;11.23;;;11.40;85.10;;;11.68;53.70;94747.94;5016697;28;20512;-56
2023/03/21 06:02:01;;;;;;;64.60;11.33;;;11.50;85.60;;;11.78;53.90;94746.88;5013965;28;20485;-60
2023/03/21 06:04:29;;;;;;;42.20;10.50;;;11.60;86.30;;;11.89;53.30;94745.81;5001018;28;20453;-55
2023/03/21 06:06:56;;;;;;;22.70;10.10;;;11.70;84.90;;;12.00;53.32;94745.63;5007216;28;20482;-55
2023/03/21 06:09:24;;;;;;;30.27;10.50;;;11.80;85.00;;;12.13;53.24;94745.25;5011444;28;20944;-57
2023/03/21 06:11:54;;;;;;;36.37;10.27;;;11.90;85.20;;;12.25;52.99;94750.28;5000210;28;20471;-56
2023/03/21 06:14:22;;;;;;;34.30;10.63;;;12.00;84.40;;;12.35;52.20;94740.47;5010129;28;20536;-56
2023/03/21 06:16:49;;;;;;;48.30;10.33;;;12.10;83.20;;;12.50;52.32;94736.28;5007561;28;20505;-55
2023/03/21 06:19:16;;;;;;;26.87;10.10;;;12.30;83.30;;;12.69;51.81;94734.44;5008230;28;20462;-55
2023/03/21 06:21:43;;;;;;;36.73;10.23;;;12.40;82.50;;;12.84;51.55;94735.50;5008365;28;20476;-56
2023/03/21 06:24:11;;;;;;;36.53;10.00;;;12.60;82.10;;;13.00;51.53;94736.56;5016683;28;20460;-56
2023/03/21 06:26:38;;;;;;;42.03;10.73;;;12.70;81.80;;;13.12;51.42;94735.31;5003402;28;20475;-55
2023/03/21 06:29:07;;;;;;;35.07;12.90;;;12.90;81.80;;;13.25;51.25;94734.84;4997196;28;20449;-56
2023/03/21 06:31:34;;;;;;;37.40;12.10;;;13.00;81.40;;;13.35;50.53;94732.91;5021337;28;20453;-57
2023/03/21 06:34:01;;;;;;;44.50;13.37;;;13.10;80.30;;;13.43;51.05;94729.47;5001984;28;20492;-57
2023/03/21 06:36:28;;;;;;;40.60;15.40;;;13.20;80.20;;;13.50;50.63;94727.84;4999384;28;20493;-55
2023/03/21 06:38:56;;;;;;;44.57;15.77;;;13.30;79.70;;;13.55;50.77;94728.19;5012570;28;20886;-57
2023/03/21 06:41:23;;;;;;;52.97;16.60;;;13.30;79.50;;;13.63;51.06;94738.81;5015989;28;21131;-54
2023/03/21 06:43:50;;;;;;;82.53;16.43;;;13.40;80.10;;;13.69;50.47;94739.13;4997767;28;20527;-56
2023/03/21 06:46:19;;;;;;;32.10;14.37;;;13.40;79.20;;;13.73;50.71;94751.03;5013480;28;21004;-56
2023/03/21 06:48:46;;;;;;;45.53;14.70;;;13.50;79.30;;;13.78;50.50;94740.81;5015832;28;20483;-55
2023/03/21 06:51:14;;;;;;;42.37;14.83;;;13.60;79.40;;;13.79;49.83;94743.28;4999567;28;20534;-59
2023/03/21 06:53:41;;;;;;;44.13;14.83;;;13.60;78.10;;;13.77;50.15;94739.13;5009885;28;20495;-57
2023/03/21 06:56:09;;;;;;;44.33;14.63;;;13.60;78.10;;;13.77;50.35;94755.00;5015055;28;20505;-56
2023/03/21 06:58:37;;;;;;;46.23;12.73;;;13.60;78.70;;;13.80;50.12;94758.16;5010750;28;20908;-55
2023/03/21 07:01:05;;;;;;;41.17;11.80;;;13.60;78.80;;;13.85;50.21;94752.38;4988839;28;20459;-55
2023/03/21 07:03:34;;;;;;;43.93;12.30;;;13.60;78.50;;;13.92;50.09;94748.09;5018067;28;20483;-56
2023/03/21 07:06:05;;;;;;;34.50;11.50;;;13.70;78.40;;;14.01;50.07;94754.22;5008089;28;20509;-55
2023/03/21 07:08:33;;;;;;;30.47;12.80;;;13.80;78.30;;;14.07;49.64;94750.91;5007469;28;20481;-56
2023/03/21 07:11:00;;;;;;;28.03;11.70;;;13.80;77.50;;;14.14;49.74;94745.78;5014877;28;20448;-57
2023/03/21 07:13:27;;;;;;;32.83;12.87;;;13.90;77.70;;;14.22;49.40;94751.09;5014104;28;20512;-55
2023/03/21 07:15:55;;;;;;;58.70;12.43;;;14.00;77.20;;;14.33;49.42;94747.31;5002835;28;21019;-56
2023/03/21 07:18:22;;;;;;;39.27;12.13;;;14.10;76.80;;;14.41;49.39;94752.56;5005598;28;21048;-57
2023/03/21 07:20:51;;;;;;;29.97;12.17;;;14.10;76.10;;;14.51;49.06;94753.22;5014022;28;20467;-56
2023/03/21 07:23:18;;;;;;;31.83;11.73;;;14.20;75.70;;;14.57;48.24;94751.72;4995931;28;20481;-55
2023/03/21 07:25:47;;;;;;;22.93;11.00;;;14.30;73.50;;;14.63;48.26;94755.56;5005365;28;20453;-57
2023/03/21 07:28:14;;;;;;;14.63;9.77;;;14.40;73.90;;;14.67;47.43;94747.13;5016268;28;20476;-55
2023/03/21 07:30:41;;;;;;;14.50;9.33;;;14.40;72.30;;;14.72;47.67;94745.78;5012683;28;20458;-56
2023/03/21 07:33:09;;;;;;;26.37;10.30;;;14.50;72.40;;;14.76;47.44;94745.28;4991742;28;20478;-57
2023/03/21 07:35:36;;;;;;;14.50;8.73;;;14.50;71.90;;;14.82;47.18;94743.78;5017735;28;20499;-55
2023/03/21 07:38:05;;;;;;;24.10;10.67;;;14.60;71.10;;;14.87;47.25;94746.72;5009519;28;20568;-56
2023/03/21 07:40:33;;;;;;;18.70;9.57;;;14.60;70.90;;;14.88;47.38;94749.22;5000857;28;20461;-56
2023/03/21 07:43:00;;;;;;;17.13;9.73;;;14.60;71.30;;;14.95;47.27;94751.19;5018339;28;20795;-53
2023/03/21 07:45:27;;;;;;;35.97;10.33;;;14.70;71.40;;;14.99;47.33;94757.81;5010337;28;20506;-56
2023/03/21 07:47:54;;;;;;;27.73;10.23;;;14.70;71.10;;;15.03;45.96;94753.84;4995332;28;20466;-55
2023/03/21 07:50:22;;;;;;;14.50;8.80;;;14.80;69.00;;;15.04;46.45;94753.66;5012869;28;20445;-56
2023/03/21 07:52:49;;;;;;;26.97;10.40;;;14.80;69.80;;;15.10;46.16;94749.47;5011891;28;20473;-60
2023/03/21 07:55:18;;;;;;;16.70;10.20;;;14.80;69.00;;;15.17;46.32;94754.94;4992362;28;20458;-57
2023/03/21 07:57:45;;;;;;;17.20;10.13;;;14.90;69.50;;;15.23;46.40;94752.44;5003819;28;20488;-56
2023/03/21 08:00:21;;;;;;;20.73;9.67;;;15.00;69.30;;;15.30;46.46;94757.03;5016431;28;20461;-57
2023/03/21 08:02:53;;;;;;;43.50;11.10;;;15.00;68.90;;;15.37;46.25;94755.38;5011027;28;20470;-56
2023/03/21 08:05:21;;;;;;;22.23;11.13;;;15.10;69.50;;;15.46;45.92;94761.44;5007162;28;20525;-55
2023/03/21 08:07:49;;;;;;;20.03;10.33;;;15.20;68.20;;;15.51;44.71;94757.28;5018500;28;20485;-56
2023/03/21 08:10:18;;;;;;;20.60;9.87;;;15.30;66.30;;;15.52;45.04;94752.81;4999433;28;20504;-56
2023/03/21 08:12:45;;;;;;;15.93;9.30;;;15.30;66.70;;;15.56;45.57;94754.94;5001881;28;20536;-55
2023/03/21 08:15:12;;;;;;;20.37;9.67;;;15.30;67.70;;;15.71;45.61;94755.03;5016589;28;21426;-56
2023/03/21 08:17:40;;;;;;;15.90;8.70;;;15.40;67.70;;;15.87;45.57;94748.81;5013708;28;20480;-57
2023/03/21 08:20:10;;;;;;;18.37;9.60;;;15.60;68.40;;;16.04;44.66;94752.19;4995759;28;20467;-56
2023/03/21 08:22:38;;;;;;;14.30;8.80;;;15.70;66.30;;;16.17;45.21;94745.47;5011104;28;21032;-55
2023/03/21 08:25:06;;;;;;;14.73;8.97;;;15.90;66.80;;;16.26;44.40;94752.38;5011905;28;20457;-54
2023/03/21 08:27:35;;;;;;;19.23;9.50;;;16.00;65.60;;;16.33;44.66;94750.69;5009807;28;20476;-53
2023/03/21 08:30:03;;;;;;;26.30;10.03;;;16.10;66.10;;;16.38;43.64;94750.13;5004321;28;20456;-56
2023/03/21 08:32:31;;;;;;;14.50;9.80;;;16.10;64.50;;;16.35;44.28;94748.66;5006498;28;20488;-55
2023/03/21 08:34:59;;;;;;;19.70;9.60;;;16.10;64.70;;;16.36;44.65;94741.50;5007421;28;20465;-56
2023/03/21 08:37:27;;;;;;;24.60;9.00;;;16.10;65.60;;;16.37;44.09;94738.69;4994791;28;20558;-55
2023/03/21 08:39:54;;;;;;;13.23;8.57;;;16.10;64.70;;;16.36;44.08;94737.03;5016049;28;20445;-56
2023/03/21 08:42:22;;;;;;;23.57;8.80;;;16.10;64.70;;;16.31;44.31;94742.03;5002118;28;20477;-55
2023/03/21 08:44:51;;;;;;;12.57;8.90;;;16.10;64.70;;;16.27;44.40;94743.41;5006405;28;20445;-55
2023/03/21 08:47:19;;;;;;;20.27;9.30;;;16.00;65.00;;;16.27;44.51;94743.41;5018667;28;20917;-57
2023/03/21 08:49:46;;;;;;;14.37;8.70;;;16.00;64.80;;;16.25;44.78;94740.09;5011290;28;20448;-57
2023/03/21 08:52:13;;;;;;;21.30;9.37;;;16.00;65.30;;;16.24;44.77;94736.63;4999396;28;20478;-55
2023/03/21 08:54:40;;;;;;;13.80;9.07;;;16.00;65.90;;;16.28;45.01;94742.41;5009737;28;20454;-56
2023/03/21 08:57:09;;;;;;;16.03;8.70;;;16.00;66.20;;;16.32;44.81;94738.41;5012122;28;20568;-55
2023/03/21 08:59:37;;;;;;;21.30;7.60;;;16.00;65.80;;;16.36;45.12;94741.50;5011531;28;20453;-56
2023/03/21 09:02:07;;;;;;;17.63;8.97;;;16.00;66.10;;;16.42;45.53;94730.19;5009409;28;20469;-54
2023/03/21 09:04:34;;;;;;;21.50;9.10;;;16.10;67.50;;;16.45;45.18;94725.34;5012793;28;20835;-55
2023/03/21 09:07:04;;;;;;;24.00;8.10;;;16.10;66.50;;;16.47;45.29;94730.47;5009995;28;20465;-55
2023/03/21 09:09:31;;;;;;;24.10;8.40;;;16.20;66.70;;;16.52;45.27;94724.63;5010267;28;20449;-52
2023/03/21 09:11:58;;;;;;;20.80;8.93;;;16.20;66.70;;;16.56;45.35;94721.44;5017683;28;20928;-54
2023/03/21 09:14:26;;;;;;;15.33;9.00;;;16.30;66.80;;;16.63;45.37;94717.03;5008047;28;20454;-56
2023/03/21 09:16:53;;;;;;;21.30;8.53;;;16.30;66.70;;;16.72;45.27;94719.63;5006298;28;20501;-57
2023/03/21 09:19:23;;;;;;;17.03;8.43;;;16.40;66.70;;;16.78;44.54;94713.59;5016941;28;20453;-57
2023/03/21 09:21:52;;;;;;;16.23;7.63;;;16.50;65.90;;;16.84;44.63;94712.88;5004411;28;20503;-55
2023/03/21 09:24:19;;;;;;;32.30;9.67;;;16.50;65.70;;;16.92;44.75;94704.00;5003108;28;21382;-54
2023/03/21 09:26:49;;;;;;;17.60;7.70;;;16.60;65.90;;;17.00;44.08;94702.06;5010295;28;20481;-55
2023/03/21 09:29:17;;;;;;;16.03;6.77;;;16.70;65.00;;;17.05;43.12;94698.06;5018447;28;20527;-56
2023/03/21 09:31:46;;;;;;;16.33;7.13;;;16.70;62.80;;;17.12;43.77;94699.78;4995642;28;20859;-57
2023/03/21 09:34:14;;;;;;;14.30;8.10;;;16.80;63.60;;;17.18;42.61;94692.88;5013723;28;20485;-55
2023/03/21 09:36:47;;;;;;;17.13;8.43;;;16.90;61.80;;;17.19;42.45;94689.22;5012909;28;20490;-56
2023/03/21 09:39:16;;;;;;;19.37;7.80;;;16.80;61.50;;;17.21;42.84;94689.84;5011809;28;20870;-56
2023/03/21 09:42:00;;;;;;;21.73;8.47;;;16.90;62.00;;;17.20;42.42;94694.38;5006496;28;20564;-56
2023/03/21 09:44:39;;;;;;;11.03;6.50;;;16.90;60.70;;;17.24;43.16;94697.47;5009090;28;20457;-56
2023/03/21 09:47:19;;;;;;;41.07;7.57;;;16.90;62.10;;;17.31;43.32;94692.25;5002766;28;20470;-57
2023/03/21 09:49:50;;;;;;;21.70;6.77;;;17.00;62.70;;;17.39;42.51;94673.53;5012144;28;20540;-55
2023/03/21 09:52:22;;;;;;;16.53;6.53;;;17.00;61.80;;;17.42;42.36;94672.34;5018595;28;20460;-57
2023/03/21 09:54:50;;;;;;;11.20;7.40;;;17.10;60.20;;;17.42;42.37;94677.66;5003568;28;20449;-56
2023/03/21 09:57:26;;;;;;;15.23;6.50;;;17.10;60.60;;;17.45;42.44;94680.75;4997942;28;20516;-54
2023/03/21 09:59:53;;;;;;;16.67;6.80;;;17.10;60.90;;;17.52;42.20;94673.69;5020980;28;20529;-57
2023/03/21 10:02:35;;;;;;;21.27;7.03;;;17.20;60.30;;;17.59;41.03;94667.63;5010673;28;20473;-57
2023/03/21 10:05:07;;;;;;;19.10;6.40;;;17.30;59.90;;;17.64;41.57;94659.88;4996030;28;20446;-56
2023/03/21 10:07:40;;;;;;;12.90;7.13;;;17.30;58.80;;;17.69;40.99;94660.13;5019165;28;20526;-58
2023/03/21 10:10:14;;;;;;;11.63;7.40;;;17.30;58.80;;;17.78;40.84;94661.66;5002952;28;21148;-57
2023/03/21 10:12:41;;;;;;;7.73;6.53;;;17.40;58.80;;;17.86;41.34;94664.22;5003570;28;20497;-55
2023/03/21 10:15:13;;;;;;;11.27;6.73;;;17.50;58.70;;;18.03;41.11;94651.50;5016035;28;20462;-54
2023/03/21 10:17:42;;;;;;;12.30;7.10;;;17.70;58.70;;;18.30;40.91;94658.91;5016468;28;20527;-56